Time;durP1;ratioP1;P1;durP2;ratioP2;P2;SDS_P1;SDS_P2;PMS_P1;PMS_P2;Temp;Humidity;BMP_temperature;BMP_pressure;BME280_temperature;BME280_humidity;BME280_pressure;Samples;Min_cycle;Max_cycle;Signal;HPM_P1;HPM_P2
2022/11/27 00:02:07;;;;;;;23.10;8.50;;;;;;;;;;4950404;28;20074;-70
2022/11/27 00:04:33;;;;;;;25.45;8.20;;;;;;;;;;4947724;28;20744;-70
2022/11/27 00:06:59;;;;;;;29.15;9.18;;;;;;;;;;4945207;28;20047;-70
2022/11/27 00:09:25;;;;;;;30.42;9.27;;;;;;;;;;4945947;28;20477;-70
2022/11/27 00:11:51;;;;;;;31.75;9.63;;;;;;;;;;4951350;28;20042;-70
2022/11/27 00:14:17;;;;;;;31.58;9.93;;;;;;;;;;4949156;28;20404;-70
2022/11/27 00:16:43;;;;;;;36.53;9.30;;;;;;;;;;4948663;28;20053;-70
2022/11/27 00:19:11;;;;;;;32.00;9.80;;;;;;;;;;4946670;28;20031;-70
2022/11/27 00:21:37;;;;;;;32.70;10.27;;;;;;;;;;4947812;28;20500;-70
2022/11/27 00:24:04;;;;;;;32.80;9.95;;;;;;;;;;4949227;28;20024;-70
2022/11/27 00:26:30;;;;;;;26.17;11.27;;;;;;;;;;4946728;28;20197;-69
2022/11/27 00:28:56;;;;;;;34.53;9.70;;;;;;;;;;4963252;28;20023;-70
2022/11/27 00:31:28;;;;;;;32.33;10.15;;;;;;;;;;4949271;28;20495;-70
2022/11/27 00:33:58;;;;;;;33.78;11.35;;;;;;;;;;4965278;28;20047;-70
2022/11/27 00:36:24;;;;;;;24.98;8.90;;;;;;;;;;4966668;28;20093;-70
2022/11/27 00:38:50;;;;;;;34.80;9.60;;;;;;;;;;4966807;28;20193;-70
2022/11/27 00:41:18;;;;;;;30.35;10.13;;;;;;;;;;4966935;28;20117;-70
2022/11/27 00:43:44;;;;;;;33.40;11.10;;;;;;;;;;4967204;28;20391;-70
2022/11/27 00:46:11;;;;;;;32.28;10.77;;;;;;;;;;4965792;28;20509;-70
2022/11/27 00:48:37;;;;;;;23.35;9.65;;;;;;;;;;4965805;28;20520;-69
2022/11/27 00:51:05;;;;;;;27.02;9.70;;;;;;;;;;4964919;28;20495;-70
2022/11/27 00:53:31;;;;;;;27.90;9.85;;;;;;;;;;4966398;28;20035;-70
2022/11/27 00:55:58;;;;;;;33.25;9.77;;;;;;;;;;4968803;28;20519;-70
2022/11/27 00:58:24;;;;;;;29.63;9.52;;;;;;;;;;4965375;28;20121;-70
2022/11/27 01:00:54;;;;;;;26.45;9.07;;;;;;;;;;4968461;28;20033;-71
2022/11/27 01:03:21;;;;;;;36.07;10.17;;;;;;;;;;4962377;28;20090;-70
2022/11/27 01:05:47;;;;;;;31.90;9.55;;;;;;;;;;4969932;28;20034;-70
2022/11/27 01:08:12;;;;;;;28.27;8.75;;;;;;;;;;4964528;28;20097;-70
2022/11/27 01:10:38;;;;;;;22.73;8.07;;;;;;;;;;4948327;28;20420;-71
2022/11/27 01:13:04;;;;;;;27.15;8.05;;;;;;;;;;4966675;28;20042;-70
2022/11/27 01:15:30;;;;;;;26.17;7.60;;;;;;;;;;4966139;28;20364;-71
2022/11/27 01:17:56;;;;;;;27.92;7.35;;;;;;;;;;4966520;28;20125;-69
2022/11/27 01:20:23;;;;;;;26.55;8.13;;;;;;;;;;4966660;28;20122;-68
2022/11/27 01:22:49;;;;;;;25.45;8.05;;;;;;;;;;4969800;28;20041;-68
2022/11/27 01:25:14;;;;;;;20.00;7.47;;;;;;;;;;4965488;28;20468;-69
2022/11/27 01:27:41;;;;;;;22.50;7.40;;;;;;;;;;4963192;28;20101;-69
2022/11/27 01:30:07;;;;;;;20.98;8.07;;;;;;;;;;4953258;28;20027;-71
2022/11/27 01:32:33;;;;;;;22.92;6.95;;;;;;;;;;4968435;28;20412;-71
2022/11/27 01:34:59;;;;;;;18.23;7.05;;;;;;;;;;4966898;28;20042;-71
2022/11/27 01:37:25;;;;;;;24.45;7.18;;;;;;;;;;4966267;28;20035;-70
2022/11/27 01:39:51;;;;;;;25.40;6.75;;;;;;;;;;4964926;28;21299;-69
2022/11/27 01:42:17;;;;;;;27.10;7.30;;;;;;;;;;4968584;28;20500;-70
2022/11/27 01:44:47;;;;;;;22.95;6.90;;;;;;;;;;4969983;28;20125;-69
2022/11/27 01:47:17;;;;;;;17.67;6.28;;;;;;;;;;4970221;28;20146;-68
2022/11/27 01:49:48;;;;;;;18.08;6.57;;;;;;;;;;4971409;28;20097;-71
2022/11/27 01:52:16;;;;;;;24.38;6.93;;;;;;;;;;4970157;28;20121;-69
2022/11/27 01:54:43;;;;;;;20.70;6.65;;;;;;;;;;4969836;28;20118;-71
2022/11/27 01:57:21;;;;;;;21.33;6.63;;;;;;;;;;4968836;28;20031;-70
2022/11/27 01:59:47;;;;;;;28.35;7.45;;;;;;;;;;4970646;28;20026;-71
2022/11/27 02:02:13;;;;;;;20.67;6.47;;;;;;;;;;4965977;28;20030;-70
2022/11/27 02:04:40;;;;;;;16.15;6.53;;;;;;;;;;4971276;28;20030;-70
2022/11/27 02:07:06;;;;;;;21.05;6.78;;;;;;;;;;4967833;28;20038;-71
2022/11/27 02:09:32;;;;;;;23.77;6.68;;;;;;;;;;4950133;28;20038;-71
2022/11/27 02:12:27;;;;;;;22.02;6.05;;;;;;;;;;4958089;28;20027;-70
2022/11/27 02:14:53;;;;;;;21.08;6.63;;;;;;;;;;4950512;28;20054;-71
2022/11/27 02:17:45;;;;;;;23.63;6.93;;;;;;;;;;4970069;28;20027;-70
2022/11/27 02:20:20;;;;;;;19.15;6.65;;;;;;;;;;4951230;28;20126;-69
2022/11/27 02:22:46;;;;;;;26.45;7.82;;;;;;;;;;4968745;28;20050;-69
2022/11/27 02:25:37;;;;;;;23.65;6.35;;;;;;;;;;4970238;28;20031;-69
2022/11/27 02:28:12;;;;;;;20.90;6.68;;;;;;;;;;4969686;28;20519;-69
2022/11/27 02:30:41;;;;;;;21.52;6.80;;;;;;;;;;4969933;28;20035;-69
2022/11/27 02:33:10;;;;;;;17.85;6.03;;;;;;;;;;4970593;28;20117;-69
2022/11/27 02:35:44;;;;;;;16.45;5.43;;;;;;;;;;4966904;28;20385;-69
2022/11/27 02:38:14;;;;;;;17.88;5.70;;;;;;;;;;4970645;28;20363;-69
2022/11/27 02:40:53;;;;;;;25.17;6.47;;;;;;;;;;4969432;28;20034;-68
2022/11/27 02:43:26;;;;;;;17.85;5.68;;;;;;;;;;4968602;28;20037;-69
2022/11/27 02:45:52;;;;;;;16.92;5.55;;;;;;;;;;4962201;28;20035;-69
2022/11/27 02:48:21;;;;;;;28.13;8.02;;;;;;;;;;4967086;28;20488;-69
2022/11/27 02:50:48;;;;;;;15.20;5.25;;;;;;;;;;4965327;28;20066;-70
2022/11/27 02:53:17;;;;;;;16.58;5.38;;;;;;;;;;4968186;28;20252;-71
2022/11/27 02:55:44;;;;;;;20.05;6.47;;;;;;;;;;4968747;28;20042;-69
2022/11/27 02:58:13;;;;;;;20.90;6.40;;;;;;;;;;4968487;28;20369;-71
2022/11/27 03:00:40;;;;;;;15.27;5.80;;;;;;;;;;4965997;28;20408;-71
2022/11/27 03:03:08;;;;;;;15.85;5.22;;;;;;;;;;4970089;28;20038;-69
2022/11/27 03:05:37;;;;;;;16.08;5.05;;;;;;;;;;4970404;28;20027;-71
2022/11/27 03:08:07;;;;;;;18.55;5.20;;;;;;;;;;4963255;28;20029;-69
2022/11/27 03:10:43;;;;;;;22.48;5.68;;;;;;;;;;4968342;28;20101;-71
2022/11/27 03:13:09;;;;;;;18.08;5.55;;;;;;;;;;4965449;28;20027;-71
2022/11/27 03:15:41;;;;;;;22.20;5.53;;;;;;;;;;4970680;28;21238;-71
2022/11/27 03:18:13;;;;;;;21.90;6.70;;;;;;;;;;4970613;28;20041;-71
2022/11/27 03:20:40;;;;;;;16.58;4.95;;;;;;;;;;4970164;28;20045;-69
2022/11/27 03:23:06;;;;;;;19.00;4.90;;;;;;;;;;4967870;28;20027;-69
2022/11/27 03:25:32;;;;;;;26.17;6.38;;;;;;;;;;4968966;28;20041;-69
2022/11/27 03:28:00;;;;;;;20.35;6.03;;;;;;;;;;4953088;28;20055;-70
2022/11/27 03:30:27;;;;;;;18.65;5.80;;;;;;;;;;4938991;28;20281;-70
2022/11/27 03:32:53;;;;;;;25.58;5.50;;;;;;;;;;4967742;28;20043;-70
2022/11/27 03:35:21;;;;;;;22.95;7.07;;;;;;;;;;4965332;28;20480;-70
2022/11/27 03:37:47;;;;;;;19.20;6.55;;;;;;;;;;4969157;28;20050;-70
2022/11/27 03:40:14;;;;;;;18.98;6.40;;;;;;;;;;4963215;28;21378;-69
2022/11/27 03:42:45;;;;;;;21.73;6.10;;;;;;;;;;4969974;28;20034;-70
2022/11/27 03:45:11;;;;;;;;;;;;;;;;;;4967925;28;20469;-70
2022/11/27 03:48:00;;;;;;;16.92;6.03;;;;;;;;;;4966488;28;19916;-70
2022/11/27 03:50:32;;;;;;;21.55;6.32;;;;;;;;;;4934954;28;20486;-70
2022/11/27 03:53:17;;;;;;;17.85;6.60;;;;;;;;;;4971003;28;20137;-70
2022/11/27 03:55:45;;;;;;;20.77;5.63;;;;;;;;;;4967396;28;20031;-70
2022/11/27 03:58:19;;;;;;;25.40;7.40;;;;;;;;;;4967769;28;20097;-70
2022/11/27 04:00:47;;;;;;;20.70;6.10;;;;;;;;;;4964148;28;20575;-70
2022/11/27 04:03:13;;;;;;;22.40;6.75;;;;;;;;;;4969191;28;20109;-70
2022/11/27 04:05:39;;;;;;;19.25;6.03;;;;;;;;;;4967822;28;20022;-70
2022/11/27 04:08:05;;;;;;;20.35;6.65;;;;;;;;;;4970199;28;20038;-69
2022/11/27 04:10:31;;;;;;;20.85;6.53;;;;;;;;;;4965941;28;20026;-71
2022/11/27 04:12:57;;;;;;;18.58;6.50;;;;;;;;;;4969600;28;21027;-69
2022/11/27 04:15:23;;;;;;;18.70;7.00;;;;;;;;;;4963411;28;20101;-69
2022/11/27 04:17:49;;;;;;;19.70;6.72;;;;;;;;;;4968266;28;20123;-69
2022/11/27 04:20:15;;;;;;;21.85;6.72;;;;;;;;;;4968989;28;20081;-70
2022/11/27 04:22:41;;;;;;;22.75;7.63;;;;;;;;;;4966281;28;20035;-70
2022/11/27 04:25:08;;;;;;;20.67;7.60;;;;;;;;;;4963907;28;20039;-68
2022/11/27 04:27:34;;;;;;;23.30;7.43;;;;;;;;;;4968427;28;20026;-69
2022/11/27 04:30:00;;;;;;;18.38;7.30;;;;;;;;;;4967395;28;20031;-69
2022/11/27 04:32:26;;;;;;;22.08;7.07;;;;;;;;;;4967365;28;20097;-69
2022/11/27 04:34:52;;;;;;;20.17;8.40;;;;;;;;;;4969366;28;20235;-69
2022/11/27 04:37:18;;;;;;;33.33;8.45;;;;;;;;;;4966620;28;20041;-70
2022/11/27 04:39:44;;;;;;;23.20;7.90;;;;;;;;;;4964367;28;20362;-69
2022/11/27 04:42:10;;;;;;;14.98;7.07;;;;;;;;;;4968652;28;20033;-70
2022/11/27 04:44:36;;;;;;;20.38;8.15;;;;;;;;;;4967240;28;20043;-69
2022/11/27 04:47:02;;;;;;;25.70;9.20;;;;;;;;;;4967758;28;20461;-70
2022/11/27 04:49:28;;;;;;;20.85;8.27;;;;;;;;;;4969533;28;20049;-69
2022/11/27 04:51:54;;;;;;;27.83;9.75;;;;;;;;;;4965529;28;20097;-68
2022/11/27 04:54:20;;;;;;;20.90;7.20;;;;;;;;;;4967113;28;20515;-70
2022/11/27 04:56:46;;;;;;;21.17;7.90;;;;;;;;;;4962816;28;20049;-69
2022/11/27 04:59:12;;;;;;;27.05;8.43;;;;;;;;;;4966097;28;20078;-70
2022/11/27 05:01:38;;;;;;;22.95;7.90;;;;;;;;;;4961738;28;20068;-70
2022/11/27 05:04:04;;;;;;;22.70;8.02;;;;;;;;;;4968612;28;20134;-69
2022/11/27 05:06:30;;;;;;;23.20;8.55;;;;;;;;;;4963386;28;20070;-70
2022/11/27 05:09:00;;;;;;;21.65;8.10;;;;;;;;;;4947009;28;20118;-70
2022/11/27 05:11:27;;;;;;;23.55;9.48;;;;;;;;;;4963647;28;20123;-69
2022/11/27 05:14:13;;;;;;;23.30;8.63;;;;;;;;;;4967446;28;20027;-70
2022/11/27 05:16:39;;;;;;;20.20;7.75;;;;;;;;;;4966772;28;20075;-70
2022/11/27 05:19:05;;;;;;;23.30;8.98;;;;;;;;;;4971998;28;20164;-70
2022/11/27 05:21:31;;;;;;;18.67;8.13;;;;;;;;;;4971293;28;20035;-69
2022/11/27 05:23:57;;;;;;;17.02;7.70;;;;;;;;;;4969195;28;20026;-69
2022/11/27 05:26:23;;;;;;;19.15;7.80;;;;;;;;;;4973481;28;20038;-70
2022/11/27 05:28:49;;;;;;;23.55;9.02;;;;;;;;;;4970841;28;20032;-69
2022/11/27 05:31:15;;;;;;;20.85;8.35;;;;;;;;;;4966907;28;20902;-70
2022/11/27 05:33:41;;;;;;;25.73;9.02;;;;;;;;;;4970501;28;20528;-68
2022/11/27 05:36:07;;;;;;;21.63;7.95;;;;;;;;;;4967910;28;20039;-69
2022/11/27 05:38:33;;;;;;;25.05;9.20;;;;;;;;;;4972265;28;20440;-69
2022/11/27 05:40:59;;;;;;;24.25;8.18;;;;;;;;;;4971948;28;20101;-70
2022/11/27 05:43:25;;;;;;;21.83;9.00;;;;;;;;;;4965532;28;20065;-70
2022/11/27 05:45:51;;;;;;;18.75;7.97;;;;;;;;;;4952181;28;20425;-69
2022/11/27 05:48:17;;;;;;;19.42;9.40;;;;;;;;;;4970582;28;20121;-69
2022/11/27 05:50:43;;;;;;;24.05;9.40;;;;;;;;;;4968375;28;20118;-69
2022/11/27 05:53:09;;;;;;;15.70;7.95;;;;;;;;;;4950761;28;20138;-69
2022/11/27 05:55:35;;;;;;;24.33;8.90;;;;;;;;;;4968497;28;20322;-69
2022/11/27 05:58:01;;;;;;;24.95;8.65;;;;;;;;;;4964201;28;20113;-69
2022/11/27 06:00:27;;;;;;;22.30;7.95;;;;;;;;;;4969557;28;20133;-69
2022/11/27 06:02:54;;;;;;;17.88;8.02;;;;;;;;;;4973342;28;20585;-69
2022/11/27 06:05:21;;;;;;;25.52;8.07;;;;;;;;;;4965101;28;20096;-68
2022/11/27 06:07:47;;;;;;;27.88;8.45;;;;;;;;;;4970006;28;20031;-69
2022/11/27 06:10:13;;;;;;;19.45;6.85;;;;;;;;;;4964633;28;20034;-69
2022/11/27 06:12:39;;;;;;;23.02;7.35;;;;;;;;;;4966970;28;20034;-69
2022/11/27 06:15:05;;;;;;;23.65;8.55;;;;;;;;;;4966321;28;20039;-70
2022/11/27 06:17:31;;;;;;;24.83;8.40;;;;;;;;;;4954168;28;20622;-70
2022/11/27 06:19:57;;;;;;;22.42;7.85;;;;;;;;;;4969922;28;20034;-70
2022/11/27 06:22:23;;;;;;;16.77;7.85;;;;;;;;;;4972009;28;20042;-70
2022/11/27 06:24:49;;;;;;;22.70;7.97;;;;;;;;;;4965687;28;20144;-70
2022/11/27 06:27:15;;;;;;;19.08;7.60;;;;;;;;;;4967017;28;20035;-70
2022/11/27 06:29:41;;;;;;;16.10;6.63;;;;;;;;;;4951339;28;20022;-70
2022/11/27 06:32:07;;;;;;;18.60;6.78;;;;;;;;;;4966235;28;20519;-69
2022/11/27 06:34:34;;;;;;;16.20;8.05;;;;;;;;;;4950897;28;20420;-70
2022/11/27 06:37:00;;;;;;;17.95;7.30;;;;;;;;;;4965447;28;20096;-70
2022/11/27 06:39:26;;;;;;;22.73;8.13;;;;;;;;;;4965367;28;20035;-70
2022/11/27 06:41:52;;;;;;;19.08;7.25;;;;;;;;;;4965945;28;20053;-70
2022/11/27 06:44:18;;;;;;;15.80;7.63;;;;;;;;;;4969006;28;20201;-71
2022/11/27 06:46:44;;;;;;;21.92;8.23;;;;;;;;;;4967463;28;20058;-70
2022/11/27 06:49:10;;;;;;;18.70;7.88;;;;;;;;;;4967964;28;20058;-70
2022/11/27 06:51:36;;;;;;;21.08;7.30;;;;;;;;;;4948970;28;20117;-69
2022/11/27 06:54:02;;;;;;;18.92;8.35;;;;;;;;;;4970750;28;20037;-69
2022/11/27 06:56:29;;;;;;;21.55;7.63;;;;;;;;;;4966605;28;20495;-70
2022/11/27 06:58:57;;;;;;;26.77;8.45;;;;;;;;;;4968291;28;20098;-70
2022/11/27 07:01:23;;;;;;;18.50;7.15;;;;;;;;;;4965855;28;20041;-70
2022/11/27 07:03:50;;;;;;;22.42;8.20;;;;;;;;;;4968799;28;20050;-70
2022/11/27 07:06:18;;;;;;;17.67;8.05;;;;;;;;;;4964852;28;20081;-70
2022/11/27 07:08:44;;;;;;;20.15;7.50;;;;;;;;;;4966703;28;20053;-71
2022/11/27 07:11:12;;;;;;;21.73;8.30;;;;;;;;;;4968030;28;20043;-70
2022/11/27 07:13:38;;;;;;;25.33;8.40;;;;;;;;;;4965803;28;20068;-70
2022/11/27 07:16:08;;;;;;;20.40;7.43;;;;;;;;;;4967402;28;20062;-71
2022/11/27 07:18:39;;;;;;;21.92;8.57;;;;;;;;;;4964924;28;20042;-70
2022/11/27 07:21:05;;;;;;;;;;;;;;;;;;4965450;28;20034;-71
2022/11/27 07:23:31;;;;;;;18.65;7.85;;;;;;;;;;4967280;28;20455;-70
2022/11/27 07:26:04;;;;;;;18.83;7.55;;;;;;;;;;4965463;28;20058;-70
2022/11/27 07:28:30;;;;;;;23.73;8.63;;;;;;;;;;4963012;28;20026;-71
2022/11/27 07:30:57;;;;;;;23.50;8.65;;;;;;;;;;4949481;28;20027;-71
2022/11/27 07:33:23;;;;;;;23.00;8.10;;;;;;;;;;4969131;28;20074;-70
2022/11/27 07:35:49;;;;;;;23.88;8.68;;;;;;;;;;4965301;28;20043;-71
2022/11/27 07:38:15;;;;;;;19.25;8.57;;;;;;;;;;4968037;28;20034;-71
2022/11/27 07:40:41;;;;;;;24.08;7.72;;;;;;;;;;4966961;28;20082;-69
2022/11/27 07:43:07;;;;;;;23.30;8.50;;;;;;;;;;4965421;28;20042;-69
2022/11/27 07:45:33;;;;;;;24.27;7.75;;;;;;;;;;4945492;28;20031;-70
2022/11/27 07:48:00;;;;;;;21.00;7.82;;;;;;;;;;4964182;28;20049;-70
2022/11/27 07:50:26;;;;;;;18.92;7.93;;;;;;;;;;4961762;28;20041;-69
2022/11/27 07:52:52;;;;;;;19.33;7.95;;;;;;;;;;4964434;28;20078;-69
2022/11/27 07:55:18;;;;;;;22.67;8.00;;;;;;;;;;4962556;28;20473;-69
2022/11/27 07:57:44;;;;;;;17.90;7.65;;;;;;;;;;4964387;28;21695;-69
2022/11/27 08:00:10;;;;;;;19.95;8.90;;;;;;;;;;4963710;28;20031;-70
2022/11/27 08:02:36;;;;;;;20.50;8.15;;;;;;;;;;4942974;28;20046;-70
2022/11/27 08:05:02;;;;;;;19.92;8.07;;;;;;;;;;4963661;28;20035;-70
2022/11/27 08:07:29;;;;;;;22.55;8.85;;;;;;;;;;4966612;28;20030;-69
2022/11/27 08:09:58;;;;;;;19.50;7.43;;;;;;;;;;4951747;28;20518;-70
2022/11/27 08:12:25;;;;;;;21.45;8.15;;;;;;;;;;4964857;28;20125;-69
2022/11/27 08:14:51;;;;;;;19.35;7.68;;;;;;;;;;4964143;28;20039;-69
2022/11/27 08:17:18;;;;;;;27.27;9.05;;;;;;;;;;4960793;28;20033;-69
2022/11/27 08:19:44;;;;;;;20.83;8.02;;;;;;;;;;4960340;28;20031;-70
2022/11/27 08:22:14;;;;;;;17.63;7.53;;;;;;;;;;4961589;28;20041;-69
2022/11/27 08:24:41;;;;;;;19.83;8.95;;;;;;;;;;4965310;28;20035;-68
2022/11/27 08:27:07;;;;;;;18.83;7.93;;;;;;;;;;4959439;28;20050;-69
2022/11/27 08:29:33;;;;;;;23.65;7.90;;;;;;;;;;4964048;28;20586;-69
2022/11/27 08:31:59;;;;;;;18.85;8.68;;;;;;;;;;4947538;28;20031;-70
2022/11/27 08:34:25;;;;;;;20.15;7.53;;;;;;;;;;4969299;28;20042;-69
2022/11/27 08:36:52;;;;;;;18.15;7.78;;;;;;;;;;4964377;28;20314;-69
2022/11/27 08:39:18;;;;;;;17.88;7.65;;;;;;;;;;4961157;28;20041;-68
2022/11/27 08:41:44;;;;;;;21.40;8.73;;;;;;;;;;4960561;28;20373;-68
2022/11/27 08:44:11;;;;;;;18.85;7.40;;;;;;;;;;4957996;28;20038;-69
2022/11/27 08:46:37;;;;;;;22.88;9.27;;;;;;;;;;4961278;28;20437;-70
2022/11/27 08:49:02;;;;;;;24.95;8.00;;;;;;;;;;4960485;28;20041;-70
2022/11/27 08:51:28;;;;;;;19.13;8.02;;;;;;;;;;4948341;28;20396;-70
2022/11/27 08:53:54;;;;;;;19.55;8.57;;;;;;;;;;4966125;28;20457;-70
2022/11/27 08:56:21;;;;;;;20.70;8.68;;;;;;;;;;4961101;28;20047;-71
2022/11/27 08:58:48;;;;;;;20.00;7.85;;;;;;;;;;4948170;28;20483;-70
2022/11/27 09:01:18;;;;;;;20.33;8.25;;;;;;;;;;4965654;28;20026;-70
2022/11/27 09:03:44;;;;;;;19.38;9.15;;;;;;;;;;4963676;28;20031;-70
2022/11/27 09:06:12;;;;;;;22.33;8.90;;;;;;;;;;4964334;28;20053;-70
2022/11/27 09:08:40;;;;;;;21.88;8.23;;;;;;;;;;4965677;28;20433;-71
2022/11/27 09:11:07;;;;;;;19.92;8.63;;;;;;;;;;4963886;28;20038;-70
2022/11/27 09:13:35;;;;;;;18.88;8.52;;;;;;;;;;4961595;28;20027;-70
2022/11/27 09:16:02;;;;;;;24.30;8.82;;;;;;;;;;4957942;28;20038;-70
2022/11/27 09:18:28;;;;;;;22.45;8.85;;;;;;;;;;4957551;28;20031;-70
2022/11/27 09:20:55;;;;;;;26.23;9.73;;;;;;;;;;4961750;28;20030;-70
2022/11/27 09:23:21;;;;;;;26.13;8.73;;;;;;;;;;4961996;28;20038;-70
2022/11/27 09:25:48;;;;;;;25.15;9.38;;;;;;;;;;4966347;28;20054;-70
2022/11/27 09:28:14;;;;;;;24.25;8.75;;;;;;;;;;4948448;28;20043;-70
2022/11/27 09:30:40;;;;;;;28.33;11.43;;;;;;;;;;4961268;28;20507;-70
2022/11/27 09:33:06;;;;;;;23.17;8.90;;;;;;;;;;4959338;28;20061;-70
2022/11/27 09:35:32;;;;;;;19.52;8.38;;;;;;;;;;4965406;28;20519;-70
2022/11/27 09:37:58;;;;;;;23.23;9.68;;;;;;;;;;4951289;28;20031;-69
2022/11/27 09:40:25;;;;;;;24.65;9.02;;;;;;;;;;4963035;28;20027;-71
2022/11/27 09:42:56;;;;;;;20.13;8.57;;;;;;;;;;4960963;28;20050;-71
2022/11/27 09:45:23;;;;;;;25.58;8.93;;;;;;;;;;4964889;28;20053;-70
2022/11/27 09:47:52;;;;;;;20.00;8.30;;;;;;;;;;4964406;28;21095;-70
2022/11/27 09:50:29;;;;;;;20.50;8.95;;;;;;;;;;4962253;28;20099;-70
2022/11/27 09:53:14;;;;;;;21.90;9.55;;;;;;;;;;4939243;28;20499;-70
2022/11/27 09:55:42;;;;;;;19.33;8.98;;;;;;;;;;4960716;28;20626;-70
2022/11/27 09:58:15;;;;;;;19.58;8.98;;;;;;;;;;4961168;28;20089;-69
2022/11/27 10:00:43;;;;;;;17.50;9.38;;;;;;;;;;4960993;28;20514;-70
2022/11/27 10:03:22;;;;;;;29.30;10.15;;;;;;;;;;4966068;28;20122;-71
2022/11/27 10:06:08;;;;;;;21.23;9.60;;;;;;;;;;4967914;28;20066;-70
2022/11/27 10:08:43;;;;;;;26.08;10.00;;;;;;;;;;4957955;28;20077;-70
2022/11/27 10:11:18;;;;;;;21.48;10.32;;;;;;;;;;4968703;28;20169;-71
2022/11/27 10:13:50;;;;;;;28.98;10.60;;;;;;;;;;4961534;28;20058;-72
2022/11/27 10:16:16;;;;;;;22.85;9.48;;;;;;;;;;4967179;28;20567;-71
2022/11/27 10:18:46;;;;;;;18.33;9.20;;;;;;;;;;4964951;28;20321;-72
2022/11/27 10:21:31;;;;;;;20.42;8.90;;;;;;;;;;4969751;28;20105;-70
2022/11/27 10:24:10;;;;;;;22.20;9.43;;;;;;;;;;4949986;28;20045;-70
2022/11/27 10:26:49;;;;;;;20.73;8.57;;;;;;;;;;4969172;28;20523;-70
2022/11/27 10:29:21;;;;;;;19.02;9.00;;;;;;;;;;4964915;28;20484;-69
2022/11/27 10:31:56;;;;;;;17.88;8.73;;;;;;;;;;4962447;28;20517;-69
2022/11/27 10:34:40;;;;;;;21.90;9.88;;;;;;;;;;4964209;28;20074;-69
2022/11/27 10:37:13;;;;;;;18.67;8.60;;;;;;;;;;4961772;28;20046;-70
2022/11/27 10:39:42;;;;;;;24.45;9.45;;;;;;;;;;4966678;28;20030;-69
2022/11/27 10:42:10;;;;;;;23.83;8.75;;;;;;;;;;4961950;28;20126;-70
2022/11/27 10:44:42;;;;;;;19.55;8.43;;;;;;;;;;4963807;28;20138;-70
2022/11/27 10:47:09;;;;;;;17.98;9.00;;;;;;;;;;4963668;28;20379;-70
2022/11/27 10:49:38;;;;;;;20.15;7.95;;;;;;;;;;4965902;28;20236;-69
2022/11/27 10:52:04;;;;;;;21.70;9.32;;;;;;;;;;4965382;28;20079;-69
2022/11/27 10:54:33;;;;;;;23.27;9.23;;;;;;;;;;4966015;28;20563;-69
2022/11/27 10:57:17;;;;;;;20.13;9.20;;;;;;;;;;4963611;28;20050;-70
2022/11/27 10:59:47;;;;;;;21.05;9.00;;;;;;;;;;4968158;28;20057;-70
2022/11/27 11:02:30;;;;;;;19.13;8.03;;;;;;;;;;4964007;28;20057;-70
2022/11/27 11:04:56;;;;;;;20.48;8.60;;;;;;;;;;4965665;28;20082;-70
2022/11/27 11:07:27;;;;;;;23.60;8.65;;;;;;;;;;4962988;28;20129;-68
2022/11/27 11:09:53;;;;;;;19.20;8.88;;;;;;;;;;4969990;28;20050;-69
2022/11/27 11:12:21;;;;;;;20.50;8.70;;;;;;;;;;4967992;28;20082;-70
2022/11/27 11:14:58;;;;;;;20.77;8.70;;;;;;;;;;4968061;28;20035;-70
2022/11/27 11:17:25;;;;;;;17.10;8.20;;;;;;;;;;4967411;28;20038;-68
2022/11/27 11:19:51;;;;;;;14.95;8.55;;;;;;;;;;4967213;28;20026;-69
2022/11/27 11:22:17;;;;;;;18.50;8.20;;;;;;;;;;4966834;28;20444;-69
2022/11/27 11:24:51;;;;;;;20.92;8.75;;;;;;;;;;4983073;28;20031;-69
2022/11/27 11:27:17;;;;;;;17.88;7.95;;;;;;;;;;4966005;28;20031;-69
2022/11/27 11:29:51;;;;;;;21.17;8.88;;;;;;;;;;4968740;28;20085;-68
2022/11/27 11:32:20;;;;;;;18.02;7.50;;;;;;;;;;4965102;28;20523;-69
2022/11/27 11:34:52;;;;;;;14.05;7.60;;;;;;;;;;4961705;28;20047;-69
2022/11/27 11:37:17;;;;;;;19.13;7.50;;;;;;;;;;4964711;28;20101;-69
2022/11/27 11:39:46;;;;;;;18.02;7.38;;;;;;;;;;4961630;28;20026;-70
2022/11/27 11:42:22;;;;;;;16.02;8.02;;;;;;;;;;4966018;28;20034;-70
2022/11/27 11:44:53;;;;;;;19.30;7.85;;;;;;;;;;4965447;28;20129;-68
2022/11/27 11:47:23;;;;;;;17.65;7.82;;;;;;;;;;4964798;28;20384;-70
2022/11/27 11:49:49;;;;;;;16.13;7.60;;;;;;;;;;4966563;28;20055;-70
2022/11/27 11:52:25;;;;;;;14.90;8.43;;;;;;;;;;4964540;28;20077;-70
2022/11/27 11:54:57;;;;;;;16.13;7.82;;;;;;;;;;4964119;28;20507;-69
2022/11/27 11:57:35;;;;;;;20.88;8.85;;;;;;;;;;4964969;28;20468;-70
2022/11/27 12:00:09;;;;;;;16.52;7.63;;;;;;;;;;4973299;28;20031;-70
2022/11/27 12:02:50;;;;;;;13.02;7.80;;;;;;;;;;4966930;28;20037;-69
2022/11/27 12:05:16;;;;;;;;;;;;;;;;;;4962447;28;20489;-70
2022/11/27 12:07:54;;;;;;;21.65;7.80;;;;;;;;;;4965083;28;19918;-70
2022/11/27 12:10:20;;;;;;;19.00;8.25;;;;;;;;;;4965607;28;20023;-70
2022/11/27 12:12:55;;;;;;;16.85;8.02;;;;;;;;;;4965611;28;20039;-70
2022/11/27 12:15:31;;;;;;;18.77;9.90;;;;;;;;;;4967150;28;20066;-71
2022/11/27 12:17:57;;;;;;;24.83;11.43;;;;;;;;;;4962737;28;20047;-69
2022/11/27 12:20:33;;;;;;;18.65;11.48;;;;;;;;;;4967535;28;20086;-71
2022/11/27 12:23:18;;;;;;;15.13;8.43;;;;;;;;;;4968033;28;20121;-71
2022/11/27 12:25:44;;;;;;;20.13;8.95;;;;;;;;;;4965082;28;20496;-70
2022/11/27 12:28:10;;;;;;;19.25;7.85;;;;;;;;;;4965263;28;20020;-70
2022/11/27 12:30:36;;;;;;;16.45;8.15;;;;;;;;;;4948129;28;20456;-69
2022/11/27 12:33:09;;;;;;;19.73;8.10;;;;;;;;;;4968746;28;20054;-69
2022/11/27 12:35:49;;;;;;;15.73;8.30;;;;;;;;;;4970798;28;20035;-72
2022/11/27 12:38:21;;;;;;;15.17;7.23;;;;;;;;;;4963940;28;20468;-71
2022/11/27 12:41:05;;;;;;;14.95;7.80;;;;;;;;;;4964974;28;20055;-70
2022/11/27 12:43:35;;;;;;;14.80;7.57;;;;;;;;;;4966552;28;20042;-71
2022/11/27 12:46:04;;;;;;;15.15;6.95;;;;;;;;;;4966550;28;20038;-68
2022/11/27 12:48:38;;;;;;;17.77;8.25;;;;;;;;;;4959240;28;20118;-71
2022/11/27 12:51:20;;;;;;;15.57;7.68;;;;;;;;;;4964096;28;20034;-70
2022/11/27 12:53:50;;;;;;;16.65;8.00;;;;;;;;;;4968222;28;20495;-71
2022/11/27 12:56:23;;;;;;;14.73;7.22;;;;;;;;;;4967436;28;20030;-71
2022/11/27 12:59:09;;;;;;;17.10;6.88;;;;;;;;;;4963693;28;20346;-69
2022/11/27 13:01:45;;;;;;;16.17;8.00;;;;;;;;;;4955696;28;20055;-71
2022/11/27 13:04:14;;;;;;;18.73;8.05;;;;;;;;;;4968633;28;20027;-71
2022/11/27 13:06:52;;;;;;;15.55;8.73;;;;;;;;;;4971954;28;20081;-70
2022/11/27 13:09:22;;;;;;;16.42;9.38;;;;;;;;;;4953970;28;20495;-70
2022/11/27 13:11:48;;;;;;;17.30;9.48;;;;;;;;;;4963701;28;20046;-72
2022/11/27 13:14:18;;;;;;;24.27;9.93;;;;;;;;;;4970101;28;20057;-70
2022/11/27 13:16:46;;;;;;;20.67;10.10;;;;;;;;;;4948381;28;20023;-71
2022/11/27 13:19:15;;;;;;;21.75;10.68;;;;;;;;;;4964816;28;20026;-70
2022/11/27 13:21:44;;;;;;;22.63;9.82;;;;;;;;;;4972328;28;20369;-70
2022/11/27 13:24:13;;;;;;;23.27;10.93;;;;;;;;;;4968185;28;20129;-69
2022/11/27 13:26:44;;;;;;;17.55;10.55;;;;;;;;;;4951568;28;20027;-69
2022/11/27 13:29:24;;;;;;;18.58;10.73;;;;;;;;;;4970920;28;20036;-70
2022/11/27 13:31:54;;;;;;;18.52;10.02;;;;;;;;;;4969705;28;20369;-70
2022/11/27 13:34:23;;;;;;;17.90;8.38;;;;;;;;;;4969102;28;20089;-70
2022/11/27 13:36:58;;;;;;;13.93;7.63;;;;;;;;;;4965191;28;20162;-69
2022/11/27 13:39:29;;;;;;;18.95;7.85;;;;;;;;;;4972698;28;20500;-68
2022/11/27 13:42:18;;;;;;;14.32;8.00;;;;;;;;;;4968851;28;20038;-70
2022/11/27 13:44:52;;;;;;;16.85;8.50;;;;;;;;;;4964174;28;20118;-68
2022/11/27 13:47:19;;;;;;;18.25;8.93;;;;;;;;;;4967490;28;20027;-68
2022/11/27 13:49:46;;;;;;;18.83;8.82;;;;;;;;;;4971374;28;20062;-69
2022/11/27 13:52:17;;;;;;;16.92;9.13;;;;;;;;;;4967542;28;20415;-69
2022/11/27 13:54:54;;;;;;;17.50;8.32;;;;;;;;;;4970422;28;20035;-67
2022/11/27 13:57:20;;;;;;;14.38;8.23;;;;;;;;;;4971414;28;20109;-69
2022/11/27 14:00:00;;;;;;;15.15;7.47;;;;;;;;;;4973281;28;20051;-70
2022/11/27 14:02:39;;;;;;;16.73;6.93;;;;;;;;;;4971094;28;20042;-70
2022/11/27 14:05:06;;;;;;;17.23;7.00;;;;;;;;;;4971972;28;20102;-70
2022/11/27 14:07:37;;;;;;;13.50;7.63;;;;;;;;;;4972106;28;20057;-69
2022/11/27 14:10:09;;;;;;;12.60;6.60;;;;;;;;;;4972813;28;20042;-68
2022/11/27 14:12:36;;;;;;;14.80;7.30;;;;;;;;;;4966505;28;20061;-70
2022/11/27 14:15:06;;;;;;;12.38;6.72;;;;;;;;;;4972439;28;20022;-69
2022/11/27 14:17:38;;;;;;;14.15;7.82;;;;;;;;;;4965364;28;20046;-69
2022/11/27 14:20:24;;;;;;;17.33;7.53;;;;;;;;;;4964780;28;20031;-70
2022/11/27 14:22:51;;;;;;;18.25;8.35;;;;;;;;;;4964441;28;20018;-69
2022/11/27 14:25:20;;;;;;;15.18;8.63;;;;;;;;;;4972488;28;20077;-69
2022/11/27 14:27:47;;;;;;;14.10;8.10;;;;;;;;;;4967713;28;20027;-70
2022/11/27 14:30:22;;;;;;;21.17;9.23;;;;;;;;;;4963820;28;20584;-69
2022/11/27 14:32:49;;;;;;;12.68;7.55;;;;;;;;;;4968986;28;20099;-69
2022/11/27 14:35:26;;;;;;;15.00;8.18;;;;;;;;;;4966255;28;20030;-70
2022/11/27 14:37:52;;;;;;;16.42;8.80;;;;;;;;;;4966808;28;20062;-69
2022/11/27 14:40:25;;;;;;;14.88;9.55;;;;;;;;;;4969619;28;20041;-69
2022/11/27 14:42:52;;;;;;;20.10;9.88;;;;;;;;;;4964971;28;20533;-69